createdAt,value
2019-05-22T00:03:17.341Z,79.40
2019-05-22T00:08:21.450Z,79.19
2019-05-22T00:13:30.037Z,78.97
2019-05-22T00:18:32.843Z,79.28
2019-05-22T00:23:38.267Z,79.39
2019-05-22T00:28:40.975Z,79.48
2019-05-22T00:33:43.671Z,79.94
2019-05-22T00:38:47.498Z,79.89
2019-05-22T00:43:51.034Z,79.60
2019-05-22T00:48:53.934Z,79.71
2019-05-22T00:54:21.188Z,80.02
2019-05-22T00:59:30.974Z,80.31
2019-05-22T01:04:35.347Z,79.96
2019-05-22T01:09:41.078Z,80.68
2019-05-22T01:14:45.144Z,80.87
2019-05-22T01:19:51.378Z,80.66
2019-05-22T01:24:56.252Z,81.16
2019-05-22T01:30:02.361Z,81.32
2019-05-22T01:35:08.814Z,82.35
2019-05-22T01:40:21.953Z,82.26
2019-05-22T01:45:25.786Z,82.59
2019-05-22T01:50:47.298Z,83.36
2019-05-22T01:55:56.604Z,83.57
2019-05-22T02:01:02.289Z,83.59
2019-05-22T02:06:06.842Z,83.85
2019-05-22T02:11:14.183Z,83.67
2019-05-22T02:16:18.075Z,84.28
2019-05-22T02:21:21.971Z,84.78
2019-05-22T02:26:24.690Z,85.43
2019-05-22T02:31:29.887Z,84.95
2019-05-22T02:36:36.478Z,84.22
2019-05-22T02:41:47.712Z,83.16
2019-05-22T02:46:52.537Z,83.32
2019-05-22T02:51:56.587Z,83.15
2019-05-22T02:57:00.437Z,82.95
2019-05-22T03:02:04.147Z,83.25
2019-05-22T03:07:09.253Z,83.80
2019-05-22T03:12:19.540Z,84.38
2019-05-22T03:17:30.026Z,84.72
2019-05-22T03:22:41.601Z,85.50
2019-05-22T03:27:49.640Z,85.99
2019-05-22T03:32:54.703Z,86.08
2019-05-22T03:37:59.313Z,86.18
2019-05-22T03:43:16.000Z,86.34
2019-05-22T03:48:23.104Z,86.18
2019-05-22T03:53:26.519Z,86.00
2019-05-22T03:58:29.840Z,85.60
2019-05-22T04:03:34.446Z,85.75
2019-05-22T04:08:40.159Z,85.82
2019-05-22T04:13:43.668Z,85.64
2019-05-22T04:18:47.573Z,85.86
2019-05-22T04:23:50.819Z,85.84
2019-05-22T04:28:54.351Z,86.09
2019-05-22T04:33:57.755Z,85.18
2019-05-22T04:39:08.641Z,84.74
2019-05-22T04:44:11.673Z,84.72
2019-05-22T04:49:14.681Z,84.27
2019-05-22T04:54:17.690Z,84.35
2019-05-22T04:59:20.982Z,84.42
2019-05-22T05:04:23.833Z,84.43
2019-05-22T05:09:26.846Z,84.25
2019-05-22T05:14:29.951Z,83.69
2019-05-22T05:19:32.966Z,82.79
2019-05-22T05:24:35.688Z,82.53
2019-05-22T05:29:38.600Z,82.20
2019-05-22T05:34:59.542Z,81.39
2019-05-22T05:40:32.922Z,80.44
2019-05-22T05:45:38.091Z,80.41
2019-05-22T05:51:27.003Z,80.99
2019-05-22T05:56:32.845Z,81.74
2019-05-22T06:01:39.747Z,81.69
2019-05-22T06:07:22.116Z,81.80
2019-05-22T06:12:24.860Z,82.08
2019-05-22T06:18:33.771Z,82.45
2019-05-22T06:24:25.245Z,82.86
2019-05-22T06:29:56.539Z,82.56
2019-05-22T06:34:59.829Z,81.70
2019-05-22T06:40:05.031Z,81.01
2019-05-22T06:45:09.540Z,80.68
2019-05-22T06:50:12.350Z,79.16
2019-05-22T06:55:15.638Z,79.12
2019-05-22T07:00:21.526Z,79.25
2019-05-22T07:05:24.513Z,79.05
2019-05-22T07:10:27.715Z,77.67
2019-05-22T07:15:51.482Z,77.98
2019-05-22T07:20:54.483Z,77.90
2019-05-22T07:25:58.958Z,76.34
2019-05-22T07:31:03.670Z,76.86
2019-05-22T07:36:10.868Z,76.70
2019-05-22T07:41:11.802Z,76.08
2019-05-22T07:46:14.672Z,75.71
2019-05-22T07:51:18.550Z,75.40
2019-05-22T07:56:22.030Z,75.21
2019-05-22T08:01:25.725Z,75.36
2019-05-22T08:06:28.728Z,74.84
2019-05-22T08:11:31.850Z,74.74
2019-05-22T08:16:35.695Z,74.51
2019-05-22T08:21:39.412Z,75.10
2019-05-22T08:26:53.984Z,74.46
2019-05-22T08:31:47.104Z,73.86
2019-05-22T08:36:50.208Z,73.85
2019-05-22T08:41:53.321Z,74.15
2019-05-22T08:46:56.333Z,74.18
2019-05-22T08:51:59.501Z,74.29
2019-05-22T08:57:04.312Z,74.25
2019-05-22T09:02:08.933Z,74.07
2019-05-22T09:07:11.743Z,73.35
2019-05-22T09:12:16.348Z,73.42
2019-05-22T09:17:20.647Z,74.42
2019-05-22T09:22:39.639Z,75.05
2019-05-22T09:27:28.792Z,75.24
2019-05-22T09:32:31.563Z,74.63
2019-05-22T09:37:34.347Z,74.18
2019-05-22T09:42:37.541Z,72.82
2019-05-22T09:47:40.378Z,72.11
2019-05-22T09:52:56.921Z,70.97
2019-05-22T09:57:50.709Z,69.44
2019-05-22T10:02:53.615Z,68.34
2019-05-22T10:08:01.628Z,67.38
2019-05-22T10:13:05.018Z,66.70
2019-05-22T10:18:08.617Z,66.66
2019-05-22T10:23:15.860Z,66.24
2019-05-22T10:28:16.638Z,63.86
2019-05-22T10:33:19.438Z,63.40
2019-05-22T10:38:22.630Z,62.62
2019-05-22T10:43:25.763Z,61.93
2019-05-22T10:48:28.679Z,63.11
2019-05-22T10:53:34.173Z,62.63
2019-05-22T10:58:36.094Z,63.09
2019-05-22T11:03:39.927Z,63.02
2019-05-22T11:08:43.911Z,62.82
2019-05-22T11:14:00.577Z,61.35
2019-05-22T11:18:54.155Z,61.80
2019-05-22T11:23:57.169Z,59.92
2019-05-22T11:29:01.867Z,58.57
2019-05-22T11:34:06.082Z,57.91
2019-05-22T11:39:14.000Z,56.32
2019-05-22T11:44:18.748Z,57.17
2019-05-22T11:49:22.237Z,56.83
2019-05-22T11:54:25.313Z,55.54
2019-05-22T11:59:28.131Z,55.81
2019-05-22T12:04:46.546Z,56.13
2019-05-22T12:09:36.765Z,56.68
2019-05-22T12:14:39.864Z,56.79
2019-05-22T12:19:42.878Z,55.85
2019-05-22T12:24:45.879Z,55.58
2019-05-22T12:29:49.181Z,55.79
2019-05-22T12:34:51.993Z,56.13
2019-05-22T12:39:55.291Z,54.91
2019-05-22T12:44:58.216Z,55.90
2019-05-22T12:50:02.740Z,55.26
2019-05-22T12:55:06.852Z,55.55
2019-05-22T13:00:11.510Z,56.31
2019-05-22T13:05:15.448Z,55.70
2019-05-22T13:10:21.578Z,51.82
2019-05-22T13:15:25.444Z,54.28
2019-05-22T13:20:42.450Z,55.23
2019-05-22T13:25:39.177Z,55.69
2019-05-22T13:31:02.990Z,54.09
2019-05-22T13:36:08.468Z,54.60
2019-05-22T13:41:11.573Z,52.91
2019-05-22T13:46:14.868Z,52.60
2019-05-22T13:51:18.071Z,52.71
2019-05-22T13:56:25.343Z,50.49
2019-05-22T14:01:27.511Z,51.23
2019-05-22T14:06:31.096Z,49.46
2019-05-22T14:11:34.271Z,49.94
2019-05-22T14:16:48.120Z,52.64
2019-05-22T14:21:49.818Z,53.11
2019-05-22T14:26:46.903Z,51.63
2019-05-22T14:31:49.847Z,51.54
2019-05-22T14:36:52.864Z,50.36
2019-05-22T14:41:56.100Z,50.69
2019-05-22T14:47:12.295Z,49.70
2019-05-22T14:52:05.477Z,48.95
2019-05-22T14:57:09.003Z,49.73
2019-05-22T15:02:11.805Z,49.37
2019-05-22T15:07:14.529Z,47.70
2019-05-22T15:12:17.333Z,47.33
2019-05-22T15:17:31.650Z,47.50
2019-05-22T15:22:25.487Z,47.91
2019-05-22T15:27:28.289Z,47.72
2019-05-22T15:32:30.988Z,49.06
2019-05-22T15:37:35.473Z,49.64
2019-05-22T15:42:41.378Z,49.04
2019-05-22T15:47:54.238Z,48.29
2019-05-22T15:52:54.854Z,48.69
2019-05-22T15:57:59.237Z,47.92
2019-05-22T16:03:10.234Z,47.06
2019-05-22T16:08:15.200Z,46.60
2019-05-22T16:13:21.505Z,47.64
2019-05-22T16:18:28.799Z,46.76
2019-05-22T16:23:35.408Z,45.78
2019-05-22T16:28:41.810Z,46.21
2019-05-22T16:33:46.613Z,44.56
2019-05-22T16:38:51.097Z,45.27
2019-05-22T16:43:54.591Z,45.51
2019-05-22T16:48:57.500Z,45.00
2019-05-22T16:54:06.497Z,44.99
2019-05-22T16:59:11.306Z,45.52
2019-05-22T17:04:15.437Z,46.05
2019-05-22T17:09:18.760Z,46.47
2019-05-22T17:14:22.946Z,47.37
2019-05-22T17:19:27.805Z,48.00
2019-05-22T17:24:34.145Z,48.22
2019-05-22T17:29:35.901Z,48.57
2019-05-22T17:34:39.252Z,48.68
2019-05-22T17:39:46.055Z,48.94
2019-05-22T17:44:50.937Z,49.61
2019-05-22T17:49:55.491Z,49.82
2019-05-22T17:54:58.310Z,50.44
2019-05-22T18:00:03.008Z,51.06
2019-05-22T18:05:07.883Z,51.85
2019-05-22T18:10:12.665Z,52.23
2019-05-22T18:15:16.787Z,52.48
2019-05-22T18:20:21.291Z,53.29
2019-05-22T18:25:25.101Z,53.32
2019-05-22T18:30:28.329Z,53.79
2019-05-22T18:35:31.157Z,53.98
2019-05-22T18:40:33.963Z,54.04
2019-05-22T18:45:38.215Z,55.01
2019-05-22T18:50:41.217Z,55.43
2019-05-22T18:55:44.213Z,56.34
2019-05-22T19:00:47.060Z,58.08
2019-05-22T19:05:50.095Z,59.19
2019-05-22T19:10:53.100Z,58.41
2019-05-22T19:15:55.987Z,59.82
2019-05-22T19:21:00.196Z,61.67
2019-05-22T19:26:05.730Z,63.56
2019-05-22T19:31:08.117Z,64.17
2019-05-22T19:36:11.080Z,65.90
2019-05-22T19:41:14.317Z,67.07
2019-05-22T19:46:17.520Z,68.03
2019-05-22T19:51:20.847Z,68.29
2019-05-22T19:56:24.127Z,68.79
2019-05-22T20:01:28.548Z,69.87
2019-05-22T20:06:31.762Z,70.20
2019-05-22T20:11:34.471Z,70.46
2019-05-22T20:16:37.583Z,70.92
2019-05-22T20:21:41.012Z,71.44
2019-05-22T20:26:44.058Z,72.01
2019-05-22T20:31:47.561Z,72.23
2019-05-22T20:36:50.352Z,72.38
2019-05-22T20:41:53.496Z,72.42
2019-05-22T20:46:56.607Z,72.92
2019-05-22T20:51:59.529Z,73.24
2019-05-22T20:57:04.180Z,73.35
2019-05-22T21:02:08.315Z,73.64
2019-05-22T21:07:12.136Z,73.66
2019-05-22T21:12:16.548Z,73.91
2019-05-22T21:17:19.550Z,74.45
2019-05-22T21:22:24.449Z,75.17
2019-05-22T21:27:27.610Z,75.36
2019-05-22T21:32:30.419Z,75.08
2019-05-22T21:37:33.138Z,75.48
2019-05-22T21:42:41.096Z,75.80
2019-05-22T21:47:44.027Z,75.96
2019-05-22T21:52:46.934Z,76.00
2019-05-22T21:57:50.276Z,76.00
2019-05-22T22:02:55.274Z,76.12
2019-05-22T22:07:58.785Z,76.11
2019-05-22T22:13:01.966Z,76.06
2019-05-22T22:18:07.801Z,76.36
2019-05-22T22:23:14.031Z,76.76
2019-05-22T22:28:17.765Z,76.58
2019-05-22T22:33:27.475Z,76.44
2019-05-22T22:38:32.273Z,76.56
2019-05-22T22:43:38.673Z,76.63
2019-05-22T22:48:43.293Z,76.59
2019-05-22T22:53:45.992Z,76.80
2019-05-22T22:58:48.699Z,77.22
2019-05-22T23:03:56.109Z,77.62
2019-05-22T23:08:59.121Z,77.71
2019-05-22T23:14:02.551Z,77.80
2019-05-22T23:19:40.921Z,77.87
2019-05-22T23:24:45.510Z,77.78
2019-05-22T23:29:50.415Z,78.07
2019-05-22T23:34:54.788Z,77.96
2019-05-22T23:39:58.719Z,78.21
2019-05-22T23:45:06.295Z,78.55
2019-05-22T23:50:09.396Z,78.65
2019-05-22T23:55:14.007Z,78.79
